Schedule Details


Flight Number: CTN669
Departure: Cilipi (LDDU) at 21:20
Arrival: Franjo Tudman (LDZA) at 22:15
Route: MADOS L187 VRANA UL187 KOMAR L187 TEBLI

Weather Information
LDDU 171230Z 28006KT 210V330 CAVOK 23/12 Q1018 NOSIG
LDZA 171230Z VRB02KT CAVOK 21/12 Q1019 NOSIG
Schedule Frequency

Route Map